sensor_id;sensor_type;location;lat;lon;timestamp;P1;durP1;ratioP1;P2;durP2;ratioP2
78666;SDS011;67983;59.830;30.198;2023-05-29T06:13:23;19.30;;;2.95;;
78666;SDS011;67983;59.830;30.198;2023-05-29T06:16:16;5.53;;;2.13;;
78666;SDS011;67983;59.830;30.198;2023-05-29T06:18:44;5.25;;;2.13;;
78666;SDS011;67983;59.830;30.198;2023-05-29T06:21:11;5.03;;;2.45;;
78666;SDS011;67983;59.830;30.198;2023-05-29T06:23:47;5.60;;;2.03;;
78666;SDS011;67983;59.830;30.198;2023-05-29T06:26:14;5.28;;;1.90;;
78666;SDS011;67983;59.830;30.198;2023-05-29T06:28:44;7.65;;;2.78;;
78666;SDS011;67983;59.830;30.198;2023-05-29T06:31:12;3.90;;;1.80;;
78666;SDS011;67983;59.830;30.198;2023-05-29T06:33:39;4.85;;;1.52;;
78666;SDS011;67983;59.830;30.198;2023-05-29T06:36:07;8.95;;;2.53;;
78666;SDS011;67983;59.830;30.198;2023-05-29T06:38:36;3.63;;;1.70;;
78666;SDS011;67983;59.830;30.198;2023-05-29T06:41:04;3.63;;;2.00;;
78666;SDS011;67983;59.830;30.198;2023-05-29T06:43:33;6.50;;;2.17;;
78666;SDS011;67983;59.830;30.198;2023-05-29T06:46:03;4.53;;;2.35;;
78666;SDS011;67983;59.830;30.198;2023-05-29T06:48:35;4.65;;;2.22;;
78666;SDS011;67983;59.830;30.198;2023-05-29T06:51:04;4.47;;;1.88;;
78666;SDS011;67983;59.830;30.198;2023-05-29T06:53:40;6.18;;;2.45;;
78666;SDS011;67983;59.830;30.198;2023-05-29T06:56:09;4.18;;;1.95;;
78666;SDS011;67983;59.830;30.198;2023-05-29T06:58:38;4.65;;;2.20;;
78666;SDS011;67983;59.830;30.198;2023-05-29T07:01:08;7.00;;;2.10;;
78666;SDS011;67983;59.830;30.198;2023-05-29T07:03:43;4.05;;;1.90;;
78666;SDS011;67983;59.830;30.198;2023-05-29T07:06:10;7.85;;;2.95;;
78666;SDS011;67983;59.830;30.198;2023-05-29T07:08:37;5.25;;;2.22;;
78666;SDS011;67983;59.830;30.198;2023-05-29T07:11:05;5.72;;;1.67;;
78666;SDS011;67983;59.830;30.198;2023-05-29T07:13:36;3.15;;;1.80;;
78666;SDS011;67983;59.830;30.198;2023-05-29T07:16:04;5.05;;;2.22;;
78666;SDS011;67983;59.830;30.198;2023-05-29T07:18:35;3.85;;;1.80;;
78666;SDS011;67983;59.830;30.198;2023-05-29T07:21:02;6.05;;;2.72;;
78666;SDS011;67983;59.830;30.198;2023-05-29T07:23:30;6.40;;;2.67;;
78666;SDS011;67983;59.830;30.198;2023-05-29T07:26:00;5.55;;;2.15;;
78666;SDS011;67983;59.830;30.198;2023-05-29T07:28:30;6.95;;;2.03;;
78666;SDS011;67983;59.830;30.198;2023-05-29T07:30:57;7.07;;;2.53;;
78666;SDS011;67983;59.830;30.198;2023-05-29T07:33:25;7.18;;;2.90;;
78666;SDS011;67983;59.830;30.198;2023-05-29T07:35:55;5.13;;;2.35;;
78666;SDS011;67983;59.830;30.198;2023-05-29T07:38:24;5.35;;;2.40;;
78666;SDS011;67983;59.830;30.198;2023-05-29T07:40:51;4.18;;;2.80;;
78666;SDS011;67983;59.830;30.198;2023-05-29T07:43:29;6.63;;;2.50;;
78666;SDS011;67983;59.830;30.198;2023-05-29T07:46:00;6.32;;;2.72;;
78666;SDS011;67983;59.830;30.198;2023-05-29T07:48:28;12.43;;;3.10;;
78666;SDS011;67983;59.830;30.198;2023-05-29T07:50:59;5.15;;;2.30;;
78666;SDS011;67983;59.830;30.198;2023-05-29T07:53:31;6.40;;;2.67;;
78666;SDS011;67983;59.830;30.198;2023-05-29T07:56:01;7.03;;;2.35;;
78666;SDS011;67983;59.830;30.198;2023-05-29T07:58:28;4.78;;;2.15;;
78666;SDS011;67983;59.830;30.198;2023-05-29T08:00:56;5.18;;;2.75;;
78666;SDS011;67983;59.830;30.198;2023-05-29T08:03:23;4.05;;;2.08;;
78666;SDS011;67983;59.830;30.198;2023-05-29T08:06:20;4.50;;;1.95;;
78666;SDS011;67983;59.830;30.198;2023-05-29T08:08:50;2.50;;;1.85;;
78666;SDS011;67983;59.830;30.198;2023-05-29T08:11:17;5.38;;;1.98;;
78666;SDS011;67983;59.830;30.198;2023-05-29T08:16:15;8.80;;;3.95;;
78666;SDS011;67983;59.830;30.198;2023-05-29T08:18:43;3.53;;;2.38;;
78666;SDS011;67983;59.830;30.198;2023-05-29T08:21:11;7.03;;;2.60;;
78666;SDS011;67983;59.830;30.198;2023-05-29T08:23:39;5.60;;;2.17;;
78666;SDS011;67983;59.830;30.198;2023-05-29T08:26:07;6.68;;;1.90;;
78666;SDS011;67983;59.830;30.198;2023-05-29T08:28:35;5.93;;;1.90;;
78666;SDS011;67983;59.830;30.198;2023-05-29T08:31:02;4.50;;;1.95;;
78666;SDS011;67983;59.830;30.198;2023-05-29T08:33:32;10.38;;;2.13;;
78666;SDS011;67983;59.830;30.198;2023-05-29T08:35:59;5.15;;;1.75;;
78666;SDS011;67983;59.830;30.198;2023-05-29T08:38:27;4.38;;;2.05;;
78666;SDS011;67983;59.830;30.198;2023-05-29T08:40:56;3.05;;;2.08;;
78666;SDS011;67983;59.830;30.198;2023-05-29T08:43:24;3.85;;;1.88;;
78666;SDS011;67983;59.830;30.198;2023-05-29T08:45:56;3.80;;;1.92;;
78666;SDS011;67983;59.830;30.198;2023-05-29T08:48:28;4.80;;;1.75;;
78666;SDS011;67983;59.830;30.198;2023-05-29T08:50:56;2.60;;;1.33;;
78666;SDS011;67983;59.830;30.198;2023-05-29T08:53:24;2.67;;;1.60;;
78666;SDS011;67983;59.830;30.198;2023-05-29T08:55:52;2.22;;;1.20;;
78666;SDS011;67983;59.830;30.198;2023-05-29T08:58:22;3.92;;;2.20;;
78666;SDS011;67983;59.830;30.198;2023-05-29T09:00:50;6.57;;;2.03;;
78666;SDS011;67983;59.830;30.198;2023-05-29T09:03:17;2.17;;;1.25;;
78666;SDS011;67983;59.830;30.198;2023-05-29T09:05:48;4.00;;;1.65;;
78666;SDS011;67983;59.830;30.198;2023-05-29T09:08:15;2.55;;;1.33;;
78666;SDS011;67983;59.830;30.198;2023-05-29T09:10:43;5.68;;;2.00;;
78666;SDS011;67983;59.830;30.198;2023-05-29T09:13:13;6.30;;;1.80;;
78666;SDS011;67983;59.830;30.198;2023-05-29T09:15:43;3.50;;;1.60;;
78666;SDS011;67983;59.830;30.198;2023-05-29T09:18:10;3.55;;;1.70;;
78666;SDS011;67983;59.830;30.198;2023-05-29T09:20:37;5.63;;;2.05;;
78666;SDS011;67983;59.830;30.198;2023-05-29T09:23:06;5.00;;;2.00;;
78666;SDS011;67983;59.830;30.198;2023-05-29T09:25:34;3.10;;;1.80;;
78666;SDS011;67983;59.830;30.198;2023-05-29T09:28:06;4.80;;;1.95;;
78666;SDS011;67983;59.830;30.198;2023-05-29T09:30:37;3.40;;;1.35;;
78666;SDS011;67983;59.830;30.198;2023-05-29T09:33:09;2.17;;;1.35;;
78666;SDS011;67983;59.830;30.198;2023-05-29T09:35:37;3.20;;;1.60;;
78666;SDS011;67983;59.830;30.198;2023-05-29T09:38:06;4.07;;;1.35;;
78666;SDS011;67983;59.830;30.198;2023-05-29T09:40:34;5.20;;;2.03;;
78666;SDS011;67983;59.830;30.198;2023-05-29T09:43:05;2.03;;;1.30;;
78666;SDS011;67983;59.830;30.198;2023-05-29T09:45:39;2.67;;;1.30;;
78666;SDS011;67983;59.830;30.198;2023-05-29T09:48:07;2.88;;;1.23;;
78666;SDS011;67983;59.830;30.198;2023-05-29T09:50:40;3.70;;;1.60;;
78666;SDS011;67983;59.830;30.198;2023-05-29T09:53:15;4.30;;;1.98;;
78666;SDS011;67983;59.830;30.198;2023-05-29T09:55:47;3.88;;;1.30;;
78666;SDS011;67983;59.830;30.198;2023-05-29T09:58:16;2.53;;;1.35;;
78666;SDS011;67983;59.830;30.198;2023-05-29T10:00:44;1.80;;;1.17;;
78666;SDS011;67983;59.830;30.198;2023-05-29T10:03:14;1.45;;;0.90;;
78666;SDS011;67983;59.830;30.198;2023-05-29T10:05:42;2.40;;;0.88;;
78666;SDS011;67983;59.830;30.198;2023-05-29T10:08:11;3.83;;;1.10;;
78666;SDS011;67983;59.830;30.198;2023-05-29T10:10:40;2.22;;;0.90;;
78666;SDS011;67983;59.830;30.198;2023-05-29T10:13:10;1.92;;;0.90;;
78666;SDS011;67983;59.830;30.198;2023-05-29T10:15:39;2.45;;;1.55;;
78666;SDS011;67983;59.830;30.198;2023-05-29T10:18:11;1.42;;;1.00;;
78666;SDS011;67983;59.830;30.198;2023-05-29T10:20:47;0.70;;;0.70;;
78666;SDS011;67983;59.830;30.198;2023-05-29T10:25:49;1.95;;;0.98;;
78666;SDS011;67983;59.830;30.198;2023-05-29T10:28:22;0.82;;;0.70;;
78666;SDS011;67983;59.830;30.198;2023-05-29T10:30:52;1.65;;;0.88;;
78666;SDS011;67983;59.830;30.198;2023-05-29T10:33:33;1.02;;;0.70;;
78666;SDS011;67983;59.830;30.198;2023-05-29T10:36:13;0.55;;;0.55;;
78666;SDS011;67983;59.830;30.198;2023-05-29T10:44:00;0.88;;;0.68;;
78666;SDS011;67983;59.830;30.198;2023-05-29T10:49:35;2.00;;;0.90;;
78666;SDS011;67983;59.830;30.198;2023-05-29T10:52:03;2.25;;;0.70;;
78666;SDS011;67983;59.830;30.198;2023-05-29T10:57:23;3.00;;;0.90;;
78666;SDS011;67983;59.830;30.198;2023-05-29T11:05:21;1.77;;;0.82;;
78666;SDS011;67983;59.830;30.198;2023-05-29T11:07:54;2.47;;;0.80;;
78666;SDS011;67983;59.830;30.198;2023-05-29T11:10:43;0.77;;;0.70;;
